Time;durP1;ratioP1;P1;durP2;ratioP2;P2;SDS_P1;SDS_P2;PMS_P1;PMS_P2;Temp;Humidity;BMP_temperature;BMP_pressure;BME280_temperature;BME280_humidity;BME280_pressure;Samples;Min_cycle;Max_cycle;Signal;HPM_P1;HPM_P2
2021/06/26 00:01:25;;;;;;;1999.90;999.90;;;12.80;99.90;;;;;;6067164;23;20334;-47
2021/06/26 00:03:52;;;;;;;1999.90;999.90;;;12.70;99.90;;;;;;6067002;23;20163;-61
2021/06/26 00:06:19;;;;;;;1999.90;999.90;;;12.70;99.90;;;;;;6066654;23;20149;-51
2021/06/26 00:08:47;;;;;;;1999.90;999.90;;;12.70;99.90;;;;;;6067574;23;20636;-48
2021/06/26 00:11:13;;;;;;;1999.90;999.90;;;12.60;99.90;;;;;;6066603;23;20164;-55
2021/06/26 00:13:40;;;;;;;1999.90;999.90;;;12.60;99.90;;;;;;6066592;23;20624;-48
2021/06/26 00:16:07;;;;;;;1999.90;999.90;;;12.60;99.90;;;;;;6066990;23;20145;-47
2021/06/26 00:18:34;;;;;;;1999.90;999.90;;;12.50;99.90;;;;;;6066742;23;20212;-50
2021/06/26 00:21:00;;;;;;;1999.90;999.90;;;12.60;99.90;;;;;;6066688;23;20145;-60
2021/06/26 00:23:27;;;;;;;1999.90;999.90;;;12.60;99.90;;;;;;6066885;23;20223;-61
2021/06/26 00:25:54;;;;;;;1999.90;999.90;;;12.60;99.90;;;;;;6066656;23;20195;-58
2021/06/26 00:28:20;;;;;;;1999.90;999.90;;;12.60;99.90;;;;;;6066902;23;20145;-64
2021/06/26 00:30:47;;;;;;;1999.90;999.90;;;12.60;99.90;;;;;;6066876;23;20152;-64
2021/06/26 00:33:14;;;;;;;1999.90;999.90;;;12.60;99.90;;;;;;6066900;23;20184;-57
2021/06/26 00:35:41;;;;;;;1999.90;999.90;;;12.70;99.90;;;;;;6066822;23;20149;-63
2021/06/26 00:38:08;;;;;;;1999.90;999.90;;;12.70;99.90;;;;;;6066827;23;20245;-49
2021/06/26 00:40:35;;;;;;;1999.90;999.90;;;12.50;99.90;;;;;;6066443;23;20219;-63
2021/06/26 00:43:02;;;;;;;1999.90;999.90;;;12.50;99.90;;;;;;6066908;23;20148;-60
2021/06/26 00:45:29;;;;;;;1999.90;999.90;;;12.40;99.90;;;;;;6066417;23;20155;-57
2021/06/26 00:47:55;;;;;;;1999.90;999.90;;;12.30;99.90;;;;;;6066220;23;20152;-49
2021/06/26 00:50:27;;;;;;;1999.90;999.90;;;12.40;99.90;;;;;;6067086;23;20219;-63
2021/06/26 00:52:53;;;;;;;1999.90;999.90;;;12.30;99.90;;;;;;6066562;23;20323;-64
2021/06/26 00:55:21;;;;;;;1999.90;999.90;;;12.20;99.90;;;;;;6066657;23;20144;-47
2021/06/26 00:57:56;;;;;;;1999.90;999.90;;;12.20;99.90;;;;;;6066829;23;20155;-50
2021/06/26 01:00:24;;;;;;;1999.90;999.90;;;12.30;99.90;;;;;;6066321;23;20164;-58
2021/06/26 01:02:52;;;;;;;1999.90;999.90;;;12.20;99.90;;;;;;6041045;23;20179;-58
2021/06/26 01:05:19;;;;;;;1999.90;999.90;;;12.30;99.90;;;;;;6066517;23;20474;-62
2021/06/26 01:07:47;;;;;;;1999.90;999.90;;;12.30;99.90;;;;;;6066527;23;20163;-46
2021/06/26 01:10:14;;;;;;;1999.90;999.90;;;12.30;99.90;;;;;;6066592;23;20189;-63
2021/06/26 01:12:42;;;;;;;1999.90;999.90;;;12.30;99.90;;;;;;6066581;23;20201;-45
2021/06/26 01:15:10;;;;;;;1999.90;999.90;;;12.20;99.90;;;;;;6066229;23;20189;-48
2021/06/26 01:17:38;;;;;;;1999.90;999.90;;;12.30;99.90;;;;;;6066986;23;20482;-56
2021/06/26 01:20:08;;;;;;;1999.90;999.90;;;12.30;99.90;;;;;;6066140;23;20161;-50
2021/06/26 01:22:42;;;;;;;1999.90;999.90;;;12.30;99.90;;;;;;6066041;23;20160;-62
2021/06/26 01:25:13;;;;;;;1999.90;999.90;;;12.30;99.90;;;;;;6066363;23;20640;-54
2021/06/26 01:27:42;;;;;;;1999.90;999.90;;;12.30;99.90;;;;;;6066484;23;20169;-48
2021/06/26 01:30:11;;;;;;;1999.90;999.90;;;12.30;99.90;;;;;;6068399;23;20145;-61
2021/06/26 01:32:39;;;;;;;1999.90;999.90;;;12.30;99.90;;;;;;6068280;23;20374;-48
2021/06/26 01:35:07;;;;;;;1999.90;999.90;;;12.30;99.90;;;;;;6068102;23;20155;-57
2021/06/26 01:37:37;;;;;;;1999.90;999.90;;;12.30;99.90;;;;;;6068287;23;20156;-62
2021/06/26 01:40:06;;;;;;;1999.90;999.90;;;12.20;99.90;;;;;;6068182;23;20145;-50
2021/06/26 01:42:33;;;;;;;1999.90;999.90;;;12.20;99.90;;;;;;6068098;23;20581;-62
2021/06/26 01:44:59;;;;;;;1999.90;999.90;;;12.20;99.90;;;;;;6068187;23;20513;-62
2021/06/26 01:47:26;;;;;;;1999.90;999.90;;;12.20;99.90;;;;;;6067916;23;20243;-51
2021/06/26 01:49:54;;;;;;;1999.90;999.90;;;12.20;99.90;;;;;;6068203;23;20148;-48
2021/06/26 01:52:20;;;;;;;1999.90;999.90;;;12.20;99.90;;;;;;6068402;23;20236;-57
2021/06/26 01:54:47;;;;;;;1999.90;999.90;;;12.20;99.90;;;;;;6068307;23;20157;-48
2021/06/26 01:57:14;;;;;;;1999.90;999.90;;;12.10;99.90;;;;;;6068296;23;20180;-48
2021/06/26 01:59:40;;;;;;;1999.90;999.90;;;12.00;99.90;;;;;;6068090;23;20183;-50
2021/06/26 02:02:08;;;;;;;1999.90;999.90;;;12.10;99.90;;;;;;6067768;23;20268;-48
2021/06/26 02:04:34;;;;;;;1999.90;999.90;;;12.10;99.90;;;;;;6067924;23;20179;-48
2021/06/26 02:07:01;;;;;;;1999.90;999.90;;;12.10;99.90;;;;;;6068328;23;20153;-52
2021/06/26 02:09:28;;;;;;;1999.90;999.90;;;12.10;99.90;;;;;;6067894;23;20145;-56
2021/06/26 02:11:55;;;;;;;1999.90;999.90;;;12.10;99.90;;;;;;6067780;23;20187;-63
2021/06/26 02:14:22;;;;;;;1999.90;999.90;;;12.10;99.90;;;;;;6068070;23;20157;-63
2021/06/26 02:16:49;;;;;;;1999.90;999.90;;;12.10;99.90;;;;;;6067890;23;20144;-56
2021/06/26 02:19:15;;;;;;;1999.90;999.90;;;12.00;99.90;;;;;;6067795;23;20615;-50
2021/06/26 02:21:42;;;;;;;1999.90;999.90;;;12.00;99.90;;;;;;6067862;23;20153;-48
2021/06/26 02:24:09;;;;;;;1999.90;999.90;;;12.00;99.90;;;;;;6067373;23;20180;-48
2021/06/26 02:26:36;;;;;;;1999.90;999.90;;;12.10;99.90;;;;;;6067612;23;20161;-64
2021/06/26 02:29:03;;;;;;;1999.90;999.90;;;12.10;99.90;;;;;;6067766;23;20148;-49
2021/06/26 02:31:29;;;;;;;1999.90;999.90;;;12.00;99.90;;;;;;6067276;23;20184;-51
2021/06/26 02:33:56;;;;;;;1999.90;999.90;;;12.00;99.90;;;;;;6068105;23;20219;-51
2021/06/26 02:36:23;;;;;;;1999.90;999.90;;;12.00;99.90;;;;;;6067628;23;20223;-49
2021/06/26 02:38:50;;;;;;;1999.90;999.90;;;12.00;99.90;;;;;;6067330;23;20227;-61
2021/06/26 02:41:20;;;;;;;1999.90;999.90;;;12.00;99.90;;;;;;6068082;23;20592;-50
2021/06/26 02:43:48;;;;;;;1999.90;999.90;;;12.00;99.90;;;;;;6067295;23;20480;-50
2021/06/26 02:46:15;;;;;;;1999.90;999.90;;;12.00;99.90;;;;;;6067470;23;20163;-53
2021/06/26 02:48:42;;;;;;;1999.90;999.90;;;12.00;99.90;;;;;;6067936;23;20145;-49
2021/06/26 02:51:09;;;;;;;1999.90;999.90;;;11.90;99.90;;;;;;6067571;23;20152;-52
2021/06/26 02:53:36;;;;;;;1999.90;999.90;;;11.80;99.90;;;;;;6067637;23;20679;-51
2021/06/26 02:56:03;;;;;;;1999.90;999.90;;;11.80;99.90;;;;;;6067679;23;20165;-49
2021/06/26 02:58:30;;;;;;;1999.90;999.90;;;11.80;99.90;;;;;;6067296;23;20165;-51
2021/06/26 03:00:57;;;;;;;1999.90;999.90;;;11.80;99.90;;;;;;6067805;23;20153;-55
2021/06/26 03:03:24;;;;;;;1999.90;999.90;;;11.70;99.90;;;;;;6067558;23;20159;-50
2021/06/26 03:05:51;;;;;;;1999.90;999.90;;;11.70;99.90;;;;;;6067175;23;20553;-53
2021/06/26 03:08:17;;;;;;;1999.90;999.90;;;11.70;99.90;;;;;;6067632;23;20599;-62
2021/06/26 03:10:44;;;;;;;1999.90;999.90;;;11.70;99.90;;;;;;6067477;23;20144;-51
2021/06/26 03:13:11;;;;;;;1999.90;999.90;;;11.70;99.90;;;;;;6066922;23;20184;-49
2021/06/26 03:15:38;;;;;;;1999.90;999.90;;;11.60;99.90;;;;;;6067591;23;20598;-59
2021/06/26 03:18:05;;;;;;;1999.90;999.90;;;11.60;99.90;;;;;;6067216;23;20504;-59
2021/06/26 03:20:32;;;;;;;1999.90;999.90;;;11.60;99.90;;;;;;6067067;23;20152;-55
2021/06/26 03:22:59;;;;;;;1999.90;999.90;;;11.60;99.90;;;;;;6067588;23;20235;-50
2021/06/26 03:25:25;;;;;;;1999.90;999.90;;;11.70;99.90;;;;;;6066730;23;20200;-48
2021/06/26 03:27:52;;;;;;;1999.90;999.90;;;11.70;99.90;;;;;;6067017;23;20527;-48
2021/06/26 03:30:19;;;;;;;1999.90;999.90;;;11.70;99.90;;;;;;6041849;23;20478;-54
2021/06/26 03:32:46;;;;;;;1999.90;999.90;;;11.70;99.90;;;;;;6066944;23;20180;-50
2021/06/26 03:35:14;;;;;;;1999.90;999.90;;;11.80;99.90;;;;;;6067335;23;20203;-48
2021/06/26 03:37:41;;;;;;;1999.90;999.90;;;11.80;99.90;;;;;;6067226;23;20178;-63
2021/06/26 03:40:09;;;;;;;1999.90;999.90;;;11.80;99.90;;;;;;6067257;23;20156;-48
2021/06/26 03:42:36;;;;;;;1999.90;999.90;;;11.80;99.90;;;;;;6066147;23;20167;-48
2021/06/26 03:45:04;;;;;;;1999.90;999.90;;;11.80;99.90;;;;;;6067540;23;20149;-54
2021/06/26 03:47:31;;;;;;;1999.90;999.90;;;11.70;99.90;;;;;;6066996;23;20508;-51
2021/06/26 03:49:58;;;;;;;1999.90;999.90;;;11.70;99.90;;;;;;6067179;23;20157;-63
2021/06/26 03:52:25;;;;;;;1999.90;999.90;;;11.70;99.90;;;;;;6066504;23;20180;-60
2021/06/26 03:54:51;;;;;;;1999.90;999.90;;;11.70;99.90;;;;;;6066763;23;20156;-57
2021/06/26 03:57:18;;;;;;;1999.90;999.90;;;11.80;99.90;;;;;;6067370;23;20148;-48
2021/06/26 03:59:46;;;;;;;1999.90;999.90;;;11.80;99.90;;;;;;6041120;23;20172;-55
2021/06/26 04:02:13;;;;;;;1999.90;999.90;;;11.80;99.90;;;;;;6066890;23;20149;-63
2021/06/26 04:04:40;;;;;;;1999.90;999.90;;;11.80;99.90;;;;;;6067418;23;20155;-63
2021/06/26 04:07:07;;;;;;;1999.90;999.90;;;11.80;99.90;;;;;;6066791;23;20149;-48
2021/06/26 04:09:34;;;;;;;1999.90;999.90;;;11.80;99.90;;;;;;6066951;23;20586;-50
2021/06/26 04:12:00;;;;;;;1999.90;999.90;;;11.80;99.90;;;;;;6067549;23;20485;-48
2021/06/26 04:14:27;;;;;;;1999.90;999.90;;;11.80;99.90;;;;;;6066874;23;20156;-63
2021/06/26 04:16:54;;;;;;;1999.90;999.90;;;11.80;99.90;;;;;;6066688;23;20156;-63
2021/06/26 04:19:21;;;;;;;1999.90;999.90;;;11.80;99.90;;;;;;6066827;23;20165;-63
2021/06/26 04:21:48;;;;;;;1999.90;999.90;;;11.80;99.90;;;;;;6066691;23;20192;-51
2021/06/26 04:24:15;;;;;;;1999.90;999.90;;;11.80;99.90;;;;;;6066383;23;20222;-57
2021/06/26 04:26:42;;;;;;;1999.90;999.90;;;11.80;99.90;;;;;;6066661;23;20160;-58
2021/06/26 04:29:09;;;;;;;1999.90;999.90;;;11.90;99.90;;;;;;6066597;23;20151;-59
2021/06/26 04:31:36;;;;;;;1999.90;999.90;;;11.90;99.90;;;;;;6066447;23;20191;-53
2021/06/26 04:34:02;;;;;;;1999.90;999.90;;;11.90;99.90;;;;;;6066540;23;20184;-50
2021/06/26 04:36:29;;;;;;;1999.90;999.90;;;11.90;99.90;;;;;;6066493;23;20220;-50
2021/06/26 04:38:56;;;;;;;1999.90;999.90;;;11.90;99.90;;;;;;6067128;23;20155;-50
2021/06/26 04:41:23;;;;;;;1999.90;999.90;;;11.80;99.90;;;;;;6066432;23;20644;-53
2021/06/26 04:43:50;;;;;;;1999.90;999.90;;;11.80;99.90;;;;;;6066482;23;20528;-52
2021/06/26 04:46:17;;;;;;;1999.90;999.90;;;11.80;99.90;;;;;;6066994;23;20153;-50
2021/06/26 04:48:44;;;;;;;1999.90;999.90;;;11.80;99.90;;;;;;6066365;23;20152;-52
2021/06/26 04:51:11;;;;;;;1999.90;999.90;;;11.80;99.90;;;;;;6066683;23;20644;-52
2021/06/26 04:53:39;;;;;;;1999.90;999.90;;;11.80;99.90;;;;;;6066665;23;20189;-48
2021/06/26 04:56:06;;;;;;;1999.90;999.90;;;11.80;99.90;;;;;;6066799;23;20152;-48
2021/06/26 04:58:33;;;;;;;1999.90;999.90;;;11.80;99.90;;;;;;6066313;23;20232;-48
2021/06/26 05:01:00;;;;;;;1999.90;999.90;;;11.80;99.90;;;;;;6066565;23;20149;-48
2021/06/26 05:03:27;;;;;;;1999.90;999.90;;;11.80;99.90;;;;;;6068263;23;20155;-62
2021/06/26 05:05:54;;;;;;;1999.90;999.90;;;11.80;99.90;;;;;;6068498;23;20501;-63
2021/06/26 05:08:21;;;;;;;1999.90;999.90;;;11.80;99.90;;;;;;6068629;23;20229;-48
2021/06/26 05:10:49;;;;;;;1999.90;999.90;;;11.80;99.90;;;;;;6068462;23;20168;-49
2021/06/26 05:13:16;;;;;;;1999.90;999.90;;;11.80;99.90;;;;;;6068806;23;20191;-50
2021/06/26 05:15:43;;;;;;;1999.90;999.90;;;11.60;99.90;;;;;;6068072;23;20160;-50
2021/06/26 05:18:11;;;;;;;1999.90;999.90;;;11.60;99.90;;;;;;6068080;23;20152;-63
2021/06/26 05:20:40;;;;;;;1999.90;999.90;;;11.60;99.90;;;;;;6068889;23;20228;-63
2021/06/26 05:23:13;;;;;;;1999.90;999.90;;;11.60;99.90;;;;;;6068066;23;20148;-57
2021/06/26 05:25:39;;;;;;;1999.90;999.90;;;11.70;99.90;;;;;;6068220;23;20188;-61
2021/06/26 05:28:06;;;;;;;1999.90;999.90;;;11.70;99.90;;;;;;6068597;23;20153;-48
2021/06/26 05:30:33;;;;;;;1999.90;999.90;;;11.70;99.90;;;;;;6068161;23;20152;-52
2021/06/26 05:33:00;;;;;;;1999.90;999.90;;;11.80;99.90;;;;;;6068307;23;20519;-63
2021/06/26 05:35:27;;;;;;;1999.90;999.90;;;11.80;99.90;;;;;;6068295;23;20631;-52
2021/06/26 05:37:54;;;;;;;1999.90;999.90;;;11.90;99.90;;;;;;6068352;23;20208;-54
2021/06/26 05:40:21;;;;;;;1999.90;999.90;;;11.90;99.90;;;;;;6068273;23;20243;-65
2021/06/26 05:42:48;;;;;;;1999.90;999.90;;;11.90;99.90;;;;;;6068088;23;20232;-51
2021/06/26 05:45:14;;;;;;;1999.90;999.90;;;11.90;99.90;;;;;;6068105;23;20145;-49
2021/06/26 05:47:41;;;;;;;1999.90;999.90;;;11.90;99.90;;;;;;6068454;23;20238;-58
2021/06/26 05:50:09;;;;;;;1999.90;999.90;;;11.90;99.90;;;;;;6068074;23;20176;-63
2021/06/26 05:53:02;;;;;;;1999.90;999.90;;;11.90;99.90;;;;;;6067540;23;20176;-48
2021/06/26 05:55:29;;;;;;;1999.90;999.90;;;11.90;99.90;;;;;;6063762;23;20160;-47
2021/06/26 05:57:57;;;;;;;1999.90;999.90;;;11.90;99.90;;;;;;6067658;23;20151;-59
2021/06/26 06:00:24;;;;;;;1999.90;999.90;;;11.90;99.90;;;;;;6067693;23;20459;-63
2021/06/26 06:02:53;;;;;;;1999.90;999.90;;;11.80;99.90;;;;;;6043702;23;20164;-49
2021/06/26 06:05:20;;;;;;;1999.90;999.90;;;11.90;99.90;;;;;;6067419;23;20204;-55
2021/06/26 06:07:47;;;;;;;1999.90;999.90;;;11.90;99.90;;;;;;6067575;23;20469;-49
2021/06/26 06:10:16;;;;;;;1999.90;999.90;;;11.90;99.90;;;;;;6067956;23;20563;-47
2021/06/26 06:12:43;;;;;;;1999.90;999.90;;;11.90;99.90;;;;;;6067391;23;20235;-48
2021/06/26 06:15:12;;;;;;;1999.90;999.90;;;11.90;99.90;;;;;;6067062;23;20149;-52
2021/06/26 06:17:40;;;;;;;1999.90;999.90;;;12.00;99.90;;;;;;6067390;23;20152;-48
2021/06/26 06:20:08;;;;;;;1999.90;999.90;;;12.00;99.90;;;;;;6067258;23;20149;-61
2021/06/26 06:22:36;;;;;;;1999.90;999.90;;;12.00;99.90;;;;;;6067161;23;20596;-56
2021/06/26 06:25:06;;;;;;;1999.90;999.90;;;12.00;99.90;;;;;;6067082;23;20703;-48
2021/06/26 06:27:35;;;;;;;1999.90;999.90;;;12.00;99.90;;;;;;6067196;23;20153;-57
2021/06/26 06:30:03;;;;;;;1999.90;999.90;;;11.90;99.90;;;;;;6067699;23;20161;-52
2021/06/26 06:32:30;;;;;;;1999.90;999.90;;;11.90;99.90;;;;;;6067247;23;20181;-54
2021/06/26 06:34:57;;;;;;;1999.90;999.90;;;11.90;99.90;;;;;;6067679;23;20145;-61
2021/06/26 06:37:24;;;;;;;1999.90;999.90;;;12.00;99.90;;;;;;6067642;23;20156;-52
2021/06/26 06:39:51;;;;;;;1999.90;999.90;;;12.00;99.90;;;;;;6067137;23;20192;-52
2021/06/26 06:42:18;;;;;;;1999.90;999.90;;;12.00;99.90;;;;;;6067181;23;20152;-53
2021/06/26 06:44:45;;;;;;;1999.90;999.90;;;12.00;99.90;;;;;;6067197;23;20878;-59
2021/06/26 06:47:11;;;;;;;1999.90;999.90;;;12.00;99.90;;;;;;6066861;23;20429;-53
2021/06/26 06:49:38;;;;;;;1999.90;999.90;;;12.00;99.90;;;;;;6067114;23;20482;-50
2021/06/26 06:52:05;;;;;;;1999.90;999.90;;;11.90;99.90;;;;;;6066826;23;20475;-46
2021/06/26 06:54:32;;;;;;;1999.90;999.90;;;11.90;99.90;;;;;;6067101;23;20157;-48
2021/06/26 06:56:59;;;;;;;1999.90;999.90;;;12.00;99.90;;;;;;6067223;23;20164;-59
2021/06/26 06:59:26;;;;;;;1999.90;999.90;;;12.00;99.90;;;;;;6066917;23;20157;-56
2021/06/26 07:01:53;;;;;;;1999.90;999.90;;;12.00;99.90;;;;;;6066845;23;20164;-48
2021/06/26 07:04:20;;;;;;;1999.90;999.90;;;12.00;99.90;;;;;;6067163;23;20232;-62
2021/06/26 07:06:46;;;;;;;1999.90;999.90;;;11.90;99.90;;;;;;6066761;23;20155;-49
2021/06/26 07:09:13;;;;;;;1999.90;999.90;;;11.90;99.90;;;;;;6066876;23;20159;-62
2021/06/26 07:11:40;;;;;;;1999.90;999.90;;;11.90;99.90;;;;;;6067323;23;20149;-48
2021/06/26 07:14:07;;;;;;;1999.90;999.90;;;11.90;99.90;;;;;;6066416;23;20546;-61
2021/06/26 07:16:34;;;;;;;1999.90;999.90;;;11.90;99.90;;;;;;6067618;23;20171;-51
2021/06/26 07:19:01;;;;;;;1999.90;999.90;;;11.80;99.90;;;;;;6067193;23;20204;-52
2021/06/26 07:21:27;;;;;;;1999.90;999.90;;;11.80;99.90;;;;;;6066576;23;20148;-48
2021/06/26 07:23:54;;;;;;;1999.90;999.90;;;11.80;99.90;;;;;;6066299;23;20149;-57
2021/06/26 07:26:21;;;;;;;1999.90;999.90;;;11.80;99.90;;;;;;6066746;23;20501;-53
2021/06/26 07:28:48;;;;;;;1999.90;999.90;;;11.80;99.90;;;;;;6066601;23;20149;-48
2021/06/26 07:31:15;;;;;;;1999.90;999.90;;;11.80;99.90;;;;;;6066725;23;20190;-61
2021/06/26 07:33:42;;;;;;;1999.90;999.90;;;11.80;99.90;;;;;;6066747;23;20193;-60
2021/06/26 07:36:09;;;;;;;1999.90;999.90;;;11.80;99.90;;;;;;6066666;23;20148;-50
2021/06/26 07:38:35;;;;;;;1999.90;999.90;;;11.90;99.90;;;;;;6066655;23;20153;-48
2021/06/26 07:41:02;;;;;;;1999.90;999.90;;;12.00;99.90;;;;;;6066477;23;20228;-57
2021/06/26 07:43:29;;;;;;;1999.90;999.90;;;12.10;99.90;;;;;;6066136;23;20156;-51
2021/06/26 07:45:56;;;;;;;1999.90;999.90;;;12.30;99.90;;;;;;6066912;23;20158;-54
2021/06/26 07:48:23;;;;;;;1999.90;999.90;;;12.30;99.90;;;;;;6066561;23;20160;-54
2021/06/26 07:50:51;;;;;;;1999.90;999.90;;;12.40;99.90;;;;;;6066363;23;20228;-47
2021/06/26 07:53:18;;;;;;;1999.90;999.90;;;12.60;99.90;;;;;;6066900;23;20623;-49
2021/06/26 07:55:54;;;;;;;1999.90;999.90;;;12.70;99.90;;;;;;6066576;23;20145;-63
2021/06/26 07:58:26;;;;;;;1999.90;999.90;;;12.80;99.90;;;;;;6066271;23;20572;-47
2021/06/26 08:00:56;;;;;;;1999.90;999.90;;;12.80;99.90;;;;;;6066330;23;20585;-49
2021/06/26 08:03:23;;;;;;;1999.90;999.90;;;13.00;99.90;;;;;;6065904;23;20148;-49
2021/06/26 08:05:51;;;;;;;1999.90;999.90;;;13.00;99.90;;;;;;6066572;23;20236;-52
2021/06/26 08:08:18;;;;;;;1999.90;999.90;;;13.00;99.90;;;;;;6066236;23;20177;-53
2021/06/26 08:10:46;;;;;;;1999.90;999.90;;;13.10;99.90;;;;;;6066001;23;20153;-63
2021/06/26 08:13:14;;;;;;;1999.90;999.90;;;13.10;99.90;;;;;;6066186;23;20268;-51
2021/06/26 08:15:43;;;;;;;1999.90;999.90;;;13.30;99.90;;;;;;6066076;23;20161;-57
2021/06/26 08:18:11;;;;;;;1999.90;999.90;;;13.40;99.90;;;;;;6065825;23;20628;-56
2021/06/26 08:20:38;;;;;;;1999.90;999.90;;;13.50;99.90;;;;;;6066141;23;20236;-51
2021/06/26 08:23:05;;;;;;;1999.90;999.90;;;13.50;99.90;;;;;;6065831;23;20521;-52
2021/06/26 08:25:32;;;;;;;1999.90;999.90;;;13.50;99.90;;;;;;6064985;23;20300;-63
2021/06/26 08:27:59;;;;;;;1999.90;999.90;;;13.50;99.90;;;;;;6066630;23;20148;-63
2021/06/26 08:30:26;;;;;;;1999.90;999.90;;;13.50;99.90;;;;;;6066286;23;20235;-56
2021/06/26 08:32:55;;;;;;;1999.90;999.90;;;13.60;99.90;;;;;;6066167;23;20227;-53
2021/06/26 08:35:37;;;;;;;1999.90;999.90;;;13.60;99.90;;;;;;6066577;23;20175;-62
2021/06/26 08:38:03;;;;;;;1999.90;999.90;;;13.70;99.90;;;;;;6060504;23;20235;-60
2021/06/26 08:40:30;;;;;;;1999.90;999.90;;;13.90;99.90;;;;;;6066408;23;20156;-62
2021/06/26 08:42:59;;;;;;;1999.90;999.90;;;14.10;99.90;;;;;;6066471;23;20235;-63
2021/06/26 08:45:27;;;;;;;1999.90;999.90;;;14.20;99.90;;;;;;6041028;23;20168;-52
2021/06/26 08:47:57;;;;;;;1999.90;999.90;;;14.20;99.90;;;;;;6066394;23;20153;-64
2021/06/26 08:50:26;;;;;;;1999.90;999.90;;;14.30;99.90;;;;;;6066836;23;20462;-63
2021/06/26 08:52:56;;;;;;;1999.90;999.90;;;14.20;99.90;;;;;;6066109;23;20188;-65
2021/06/26 08:55:26;;;;;;;1999.90;999.90;;;14.20;99.90;;;;;;6067295;23;20180;-53
2021/06/26 08:57:53;;;;;;;1999.90;999.90;;;14.20;99.90;;;;;;6066632;23;20157;-50
2021/06/26 09:00:25;;;;;;;1999.90;999.90;;;14.20;99.90;;;;;;6065967;23;20148;-48
2021/06/26 09:03:06;;;;;;;1999.90;999.90;;;14.20;99.90;;;;;;6066661;23;20580;-65
2021/06/26 09:05:33;;;;;;;1999.90;999.90;;;14.30;99.90;;;;;;6066375;23;20565;-65
2021/06/26 09:08:12;;;;;;;1999.90;999.90;;;14.40;99.90;;;;;;6066480;23;20476;-51
2021/06/26 09:10:40;;;;;;;1999.90;999.90;;;14.60;99.90;;;;;;6066652;23;20153;-52
2021/06/26 09:13:25;;;;;;;1999.90;999.90;;;14.70;99.90;;;;;;6066578;23;20208;-59
2021/06/26 09:16:15;;;;;;;1999.90;999.90;;;14.80;99.90;;;;;;6066510;23;20156;-64
2021/06/26 09:18:50;;;;;;;1999.90;999.90;;;14.80;99.90;;;;;;6066509;23;20171;-65
2021/06/26 09:21:32;;;;;;;1999.90;999.90;;;14.80;99.90;;;;;;6066010;23;20602;-51
2021/06/26 09:24:05;;;;;;;1999.90;999.90;;;14.80;99.90;;;;;;6066685;23;20180;-54
2021/06/26 09:26:33;;;;;;;1999.90;999.90;;;14.80;99.90;;;;;;6066030;23;20486;-66
2021/06/26 09:29:15;;;;;;;1999.90;999.90;;;15.20;99.90;;;;;;6067034;23;20145;-65
2021/06/26 09:31:58;;;;;;;1999.90;999.90;;;15.00;99.90;;;;;;6066966;23;20515;-63
2021/06/26 09:34:43;;;;;;;1999.90;999.90;;;15.00;99.90;;;;;;6066482;23;20193;-63
2021/06/26 09:37:13;;;;;;;1999.90;999.90;;;15.00;99.90;;;;;;6066875;23;20141;-51
2021/06/26 09:39:42;;;;;;;1999.90;999.90;;;15.20;99.90;;;;;;6066189;23;20192;-56
2021/06/26 09:42:24;;;;;;;1999.90;999.90;;;15.30;99.90;;;;;;6066091;23;20197;-55
2021/06/26 09:45:20;;;;;;;1999.90;999.90;;;15.40;99.90;;;;;;6066783;23;20148;-64
2021/06/26 09:47:47;;;;;;;1999.90;999.90;;;15.50;99.90;;;;;;6042387;23;20184;-61
2021/06/26 09:50:20;;;;;;;1999.90;999.90;;;15.50;99.90;;;;;;6067541;23;20148;-55
2021/06/26 09:52:50;;;;;;;1999.90;999.90;;;15.50;99.90;;;;;;6068133;23;20215;-63
2021/06/26 09:55:37;;;;;;;1999.90;999.90;;;15.60;99.90;;;;;;6067527;23;20240;-63
2021/06/26 09:58:17;;;;;;;1999.90;999.90;;;15.60;99.90;;;;;;6068152;23;20196;-64
2021/06/26 10:00:45;;;;;;;1999.90;999.90;;;15.70;99.90;;;;;;6067127;23;20514;-66
2021/06/26 10:03:17;;;;;;;1999.90;999.90;;;15.70;99.90;;;;;;6067686;23;20144;-53
2021/06/26 10:05:47;;;;;;;1999.90;999.90;;;15.80;99.90;;;;;;6067670;23;20148;-52
2021/06/26 10:08:16;;;;;;;1999.90;999.90;;;15.90;99.90;;;;;;6067621;23;20156;-53
2021/06/26 10:10:43;;;;;;;1999.90;999.90;;;15.90;99.90;;;;;;6068092;23;20244;-59
2021/06/26 10:13:14;;;;;;;1999.90;999.90;;;16.00;99.90;;;;;;6067464;23;20192;-61
2021/06/26 10:15:41;;;;;;;1999.90;999.90;;;16.10;99.90;;;;;;6067558;23;20588;-58
2021/06/26 10:18:11;;;;;;;1999.90;999.90;;;16.10;99.90;;;;;;6067675;23;20529;-66
2021/06/26 10:20:38;;;;;;;1999.90;999.90;;;16.20;99.90;;;;;;6067645;23;20167;-66
2021/06/26 10:23:05;;;;;;;1999.90;999.90;;;16.20;99.90;;;;;;6067482;23;20149;-57
2021/06/26 10:25:38;;;;;;;1999.90;999.90;;;16.40;99.90;;;;;;6067999;23;20219;-59
2021/06/26 10:28:13;;;;;;;1999.90;999.90;;;16.50;98.50;;;;;;6067606;23;20149;-60
2021/06/26 10:30:41;;;;;;;1999.90;999.90;;;16.50;97.40;;;;;;6067258;23;20148;-65
2021/06/26 10:33:11;;;;;;;1999.90;999.90;;;16.50;98.50;;;;;;6068102;23;20187;-66
2021/06/26 10:35:50;;;;;;;1999.90;999.90;;;16.30;98.90;;;;;;6067230;23;20159;-60
2021/06/26 10:38:17;;;;;;;1999.90;999.90;;;16.30;97.80;;;;;;6067649;23;20141;-53
2021/06/26 10:40:57;;;;;;;1999.90;999.90;;;16.10;98.70;;;;;;6067393;23;20169;-57
2021/06/26 10:43:29;;;;;;;1999.90;999.90;;;16.10;99.90;;;;;;6067347;23;20516;-52
2021/06/26 10:46:13;;;;;;;1999.90;999.90;;;16.00;99.90;;;;;;6067468;23;20149;-66
2021/06/26 10:48:42;;;;;;;1999.90;999.90;;;16.00;98.10;;;;;;6067203;23;20523;-51
2021/06/26 10:51:10;;;;;;;1999.90;999.90;;;15.80;99.90;;;;;;6067288;23;20156;-52
2021/06/26 10:53:41;;;;;;;1999.90;999.90;;;15.80;99.90;;;;;;6067551;23;20191;-50
2021/06/26 10:56:11;;;;;;;1999.90;999.90;;;15.50;99.90;;;;;;6067080;23;20170;-54
2021/06/26 10:58:46;;;;;;;1999.90;999.90;;;15.20;99.90;;;;;;6066539;23;20153;-67
2021/06/26 11:01:14;;;;;;;1999.90;999.90;;;15.00;99.90;;;;;;6067494;23;20564;-53
2021/06/26 11:03:41;;;;;;;1999.90;999.90;;;14.90;99.90;;;;;;6066999;23;20158;-52
2021/06/26 11:06:30;;;;;;;1999.90;999.90;;;14.80;99.90;;;;;;6067320;23;20145;-68
2021/06/26 11:08:57;;;;;;;1999.90;999.90;;;14.90;99.90;;;;;;6066620;23;20160;-50
2021/06/26 11:11:44;;;;;;;1999.90;999.90;;;15.10;99.90;;;;;;6066558;23;20145;-55
2021/06/26 11:14:31;;;;;;;1999.90;999.90;;;15.30;99.90;;;;;;6067312;23;20190;-53
2021/06/26 11:16:59;;;;;;;1999.90;999.90;;;15.40;99.90;;;;;;6066457;23;20145;-67
2021/06/26 11:19:31;;;;;;;1999.90;999.90;;;15.40;99.90;;;;;;6066670;23;20160;-49
2021/06/26 11:22:00;;;;;;;1999.90;999.90;;;15.50;99.90;;;;;;6067021;23;20231;-68
2021/06/26 11:24:38;;;;;;;1999.90;999.90;;;15.60;99.90;;;;;;6066769;23;20227;-59
2021/06/26 11:27:06;;;;;;;1999.90;999.90;;;15.60;99.90;;;;;;6066754;23;20529;-49
2021/06/26 11:29:37;;;;;;;1999.90;999.90;;;15.40;99.90;;;;;;6066939;23;20175;-52
2021/06/26 11:32:19;;;;;;;1999.90;999.90;;;15.40;99.90;;;;;;6066458;23;20581;-63
2021/06/26 11:34:55;;;;;;;1999.90;999.90;;;15.50;99.90;;;;;;6067095;23;20144;-68
2021/06/26 11:37:22;;;;;;;1999.90;999.90;;;15.60;99.90;;;;;;6066825;23;20476;-64
2021/06/26 11:39:49;;;;;;;1999.90;999.90;;;15.80;99.90;;;;;;6040921;23;20160;-67
2021/06/26 11:42:20;;;;;;;1999.90;999.90;;;16.00;99.90;;;;;;6066737;23;20156;-50
2021/06/26 11:44:48;;;;;;;1999.90;999.90;;;16.20;99.90;;;;;;6066314;23;20148;-48
2021/06/26 11:47:16;;;;;;;1999.90;999.90;;;16.50;99.90;;;;;;6066072;23;20152;-62
2021/06/26 11:49:46;;;;;;;1999.90;999.90;;;16.30;99.90;;;;;;6066587;23;20228;-66
2021/06/26 11:52:15;;;;;;;1999.90;999.90;;;16.50;99.90;;;;;;6066018;23;20149;-51
2021/06/26 11:54:44;;;;;;;1999.90;999.90;;;16.60;99.90;;;;;;6066827;23;20153;-50
2021/06/26 11:57:12;;;;;;;1999.90;999.90;;;16.80;99.90;;;;;;6066621;23;20148;-51
2021/06/26 11:59:45;;;;;;;1999.90;999.90;;;16.80;97.10;;;;;;6066970;23;20155;-53
2021/06/26 12:02:13;;;;;;;1999.90;999.90;;;16.70;96.10;;;;;;6066853;23;20148;-49
2021/06/26 12:04:40;;;;;;;1999.90;999.90;;;16.70;95.50;;;;;;6066801;23;20239;-52
2021/06/26 12:07:08;;;;;;;1999.90;999.90;;;16.80;95.80;;;;;;6066630;23;20576;-50